.
WxDataArchive / Data Records for 2006-07-18
2006-07-17 July 2006 2006-07-19

Data Records for Tuesday, 18 July 2006

Time	Temp	Chill	HIndex	Humid	Dewpt	 Wind 	HiWind	WindDir	Rain 	Barom 
-----	----	-----	------	-----	-----	------	------	-------	-----	----- 
00:00	77.9	77.9	80.0	74	68.9	0	1	248	0.00	29.885 
00:05	77.7	77.7	79.7	75	69.1	0	1	248	0.00	29.885 
00:10	77.6	77.6	79.6	76	69.4	0	1	248	0.00	29.885 
00:15	77.2	77.2	79.0	77	69.4	0	1	248	0.00	29.892 
00:20	77.0	77.0	78.7	77	69.2	0	1	248	0.00	29.892 
00:25	76.8	76.8	78.3	78	69.4	0	2	248	0.00	29.892 
00:30	76.8	76.8	78.3	78	69.4	0	2	248	0.00	29.905 
00:35	77.0	77.0	78.7	77	69.2	0	1	248	0.00	29.905 
00:40	77.2	77.2	79.0	77	69.4	0	3	248	0.00	29.905 
00:45	77.4	77.4	79.3	76	69.2	0	2	248	0.00	29.912 
00:50	77.6	77.6	79.6	75	69.0	0	1	248	0.00	29.912 
00:55	77.6	77.6	79.6	75	69.0	0	1	248	0.00	29.912 
01:00	77.6	77.6	79.6	76	69.4	0	1	248	0.00	29.925 
01:05	77.6	77.6	79.6	76	69.4	0	1	248	0.00	29.925 
01:10	77.6	77.6	79.6	76	69.4	0	2	248	0.00	29.925 
01:15	77.4	77.4	79.3	76	69.2	0	2	248	0.00	29.928 
01:20	77.4	77.4	79.3	76	69.2	0	1	248	0.00	29.928 
01:25	77.2	77.2	79.0	76	69.0	0	1	248	0.00	29.928 
01:30	77.0	77.0	78.7	77	69.2	0	0	---	0.00	29.938 
01:35	76.8	76.8	78.4	77	69.0	0	0	---	0.00	29.938 
01:40	76.8	76.8	78.4	77	69.0	0	1	248	0.00	29.938 
01:45	77.0	77.0	78.7	77	69.2	0	1	248	0.00	29.928 
01:50	77.2	77.2	79.0	77	69.4	0	1	248	0.00	29.928 
01:55	77.2	77.2	78.9	78	69.8	0	1	248	0.00	29.928 
02:00	77.0	77.0	78.7	72	67.3	2	7	22	0.00	29.956 
02:05	76.5	76.5	78.3	68	65.1	4	9	90	0.00	29.956 
02:10	76.3	76.3	78.1	66	64.1	3	7	90	0.00	29.956 
02:15	76.3	76.3	78.2	61	61.8	4	18	90	0.00	29.982 
02:20	75.6	75.6	77.7	60	60.7	4	11	112	0.00	29.982 
02:25	75.3	75.3	77.5	61	60.9	3	7	90	0.00	29.982 
02:30	74.9	74.9	74.9	62	61.0	3	10	90	0.00	29.998 
02:35	74.7	74.7	74.7	62	60.8	3	10	90	0.00	29.998 
02:40	74.6	74.6	74.6	65	62.0	3	7	90	0.00	29.998 
02:45	74.4	74.4	74.4	66	62.3	1	3	68	0.00	30.006 
02:50	74.2	74.2	74.2	69	63.4	2	7	90	0.00	30.006 
02:55	73.7	73.7	73.7	71	63.7	1	5	90	0.01	30.006 
03:00	73.0	73.0	73.0	77	65.3	0	1	90	0.02	30.018 
03:05	72.0	72.0	72.0	78	64.8	1	3	90	0.02	30.018 
03:10	70.9	70.9	70.9	81	64.8	0	1	90	0.00	30.018 
03:15	70.1	70.1	70.1	83	64.7	1	3	90	0.01	30.005 
03:20	69.4	69.4	69.4	85	64.7	1	3	90	0.00	30.005 
03:25	68.9	68.9	68.9	85	64.2	1	3	90	0.00	30.005 
03:30	68.4	68.4	68.4	85	63.7	2	6	90	0.00	29.981 
03:35	68.4	68.4	68.4	86	64.0	2	5	90	0.00	29.981 
03:40	68.3	68.3	68.3	86	63.9	2	4	90	0.00	29.981 
03:45	68.1	68.1	68.1	86	63.7	3	6	90	0.00	29.979 
03:50	68.1	68.1	68.1	87	64.1	1	4	112	0.00	29.979 
03:55	67.9	67.9	67.9	87	63.9	1	4	90	0.00	29.979 
04:00	68.1	68.1	68.1	86	63.7	1	4	22	0.00	29.981 
04:05	68.1	68.1	68.1	86	63.7	1	2	45	0.00	29.981 
04:10	68.1	68.1	68.1	87	64.1	0	1	45	0.00	29.981 
04:15	67.8	67.8	67.8	88	64.1	0	2	0	0.00	30.020 
04:20	67.8	67.8	67.8	88	64.1	1	3	0	0.00	30.020 
04:25	67.6	67.6	67.6	88	63.9	1	4	315	0.01	30.020 
04:30	67.3	67.3	67.3	89	63.9	2	4	292	0.02	30.061 
04:35	67.1	67.1	67.1	91	64.4	1	3	292	0.04	30.061 
04:40	66.9	66.9	66.9	91	64.2	0	1	292	0.05	30.061 
04:45	66.8	66.8	66.8	91	64.1	2	4	68	0.04	30.042 
04:50	66.6	66.6	66.6	92	64.2	2	5	68	0.02	30.042 
04:55	66.4	66.4	66.4	92	64.0	3	7	112	0.01	30.042 
05:00	66.4	66.4	66.4	92	64.0	4	7	90	0.00	29.981 
05:05	66.6	66.6	66.6	91	63.9	4	11	90	0.00	29.981 
05:10	66.6	66.6	66.6	91	63.9	3	10	90	0.01	29.981 
05:15	66.8	66.8	66.8	91	64.1	2	4	112	0.00	29.987 
05:20	66.8	66.8	66.8	91	64.1	2	3	90	0.01	29.987 
05:25	66.8	66.8	66.8	92	64.4	2	4	90	0.00	29.987 
05:30	66.6	66.6	66.6	92	64.2	1	3	112	0.00	29.970 
05:35	66.6	66.6	66.6	92	64.2	2	4	112	0.00	29.970 
05:40	66.4	66.4	66.4	92	64.0	2	5	90	0.01	29.970 
05:45	66.4	66.4	66.4	92	64.0	2	5	112	0.00	29.949 
05:50	66.6	66.6	66.6	91	63.9	2	4	112	0.00	29.949 
05:55	66.9	66.9	66.9	90	63.9	2	7	112	0.00	29.949 
06:00	67.1	67.1	67.1	89	63.7	2	5	90	0.00	29.949 
06:05	67.3	67.3	67.3	90	64.3	1	3	90	0.00	29.949 
06:10	67.3	67.3	67.3	89	63.9	0	3	90	0.00	29.949 
06:15	67.3	67.3	67.3	89	63.9	1	4	90	0.00	29.950 
06:20	67.4	67.4	67.4	89	64.0	1	2	90	0.00	29.950 
06:25	67.4	67.4	67.4	89	64.0	0	1	90	0.00	29.950 
06:30	67.4	67.4	67.4	89	64.0	0	1	90	0.00	29.950 
06:35	67.3	67.3	67.3	90	64.3	0	0	---	0.00	29.950 
06:40	67.1	67.1	67.1	90	64.1	0	1	90	0.00	29.950 
06:45	67.1	67.1	67.1	90	64.1	1	3	90	0.00	29.935 
06:50	67.1	67.1	67.1	90	64.1	1	3	112	0.00	29.935 
06:55	67.3	67.3	67.3	90	64.3	0	3	68	0.00	29.935 
07:00	67.3	67.3	67.3	90	64.3	0	0	---	0.00	29.949 
07:05	67.1	67.1	67.1	91	64.4	0	0	---	0.00	29.949 
07:10	67.1	67.1	67.1	91	64.4	0	0	---	0.00	29.949 
07:15	67.1	67.1	67.1	92	64.7	0	0	---	0.00	29.952 
07:20	67.1	67.1	67.1	92	64.7	0	0	---	0.00	29.952 
07:25	67.1	67.1	67.1	93	65.0	0	0	---	0.00	29.952 
07:30	67.1	67.1	67.1	93	65.0	0	0	---	0.00	29.960 
07:35	67.3	67.3	67.3	93	65.2	0	0	---	0.00	29.960 
07:40	67.4	67.4	67.4	93	65.3	0	0	---	0.00	29.960 
07:45	67.6	67.6	67.6	93	65.5	0	0	---	0.00	29.965 
07:50	67.9	67.9	67.9	93	65.8	0	1	68	0.00	29.965 
07:55	68.3	68.3	68.3	93	66.2	0	1	68	0.00	29.965 
08:00	68.6	68.6	68.6	93	66.5	0	1	68	0.00	29.965 
08:05	68.6	68.6	68.6	92	66.2	0	1	68	0.00	29.965 
08:10	68.6	68.6	68.6	92	66.2	0	1	68	0.00	29.965 
08:15	68.8	68.8	68.8	92	66.4	1	3	68	0.00	29.964 
08:20	69.3	69.3	69.3	92	66.9	1	3	292	0.00	29.964 
08:25	69.8	69.8	69.8	91	67.0	1	3	292	0.00	29.964 
08:30	70.3	70.3	70.3	89	66.9	1	3	270	0.00	29.956 
08:35	70.8	70.8	70.8	90	67.7	0	1	248	0.00	29.956 
08:40	71.3	71.3	71.3	86	66.9	1	3	270	0.00	29.956 
08:45	71.5	71.5	71.5	85	66.7	0	2	270	0.00	29.957 
08:50	71.6	71.6	71.6	84	66.5	0	1	270	0.00	29.957 
08:55	71.8	71.8	71.8	84	66.7	0	1	270	0.00	29.957 
09:00	72.0	72.0	72.0	83	66.5	0	1	270	0.00	29.965 
09:05	72.3	72.3	72.3	83	66.8	0	1	270	0.00	29.965 
09:10	72.8	72.8	72.8	82	67.0	0	1	270	0.00	29.965 
09:15	73.3	73.3	73.3	80	66.7	0	1	270	0.00	29.965 
09:20	73.9	73.9	73.9	79	67.0	0	2	270	0.00	29.965 
09:25	74.4	74.4	74.4	76	66.3	1	2	270	0.00	29.965 
09:30	74.4	74.4	74.4	74	65.6	0	2	202	0.00	29.970 
09:35	74.2	74.2	74.2	77	66.5	0	1	202	0.00	29.970 
09:40	74.2	74.2	74.2	76	66.1	0	1	202	0.00	29.970 
09:45	74.6	74.6	74.6	76	66.5	0	2	202	0.00	29.978 
09:50	74.7	74.7	74.7	74	65.8	1	3	270	0.00	29.978 
09:55	74.7	74.7	74.7	73	65.5	1	2	270	0.00	29.978 
10:00	74.9	74.9	74.9	74	66.0	0	3	158	0.00	29.977 
10:05	75.3	75.3	76.6	74	66.4	1	3	112	0.00	29.977 
10:10	75.6	75.6	77.0	73	66.3	0	2	112	0.00	29.977 
10:15	76.1	76.1	77.7	72	66.4	1	3	112	0.00	29.977 
10:20	76.3	76.3	78.0	69	65.4	1	2	248	0.00	29.977 
10:25	76.8	76.8	78.5	70	66.3	1	2	158	0.00	29.977 
10:30	77.7	77.7	79.6	66	65.4	0	3	135	0.00	29.978 
10:35	78.1	78.1	80.0	66	65.8	1	3	90	0.00	29.978 
10:40	78.6	78.6	80.5	64	65.4	1	3	90	0.00	29.978 
10:45	79.0	79.0	80.9	63	65.3	0	2	112	0.00	29.976 
10:50	79.2	79.2	81.3	65	66.4	0	2	112	0.00	29.976 
10:55	79.8	79.8	81.7	61	65.1	1	3	112	0.00	29.976 
11:00	80.3	80.3	82.9	66	67.9	1	3	90	0.00	29.976 
11:05	80.7	80.7	83.2	64	67.4	2	5	90	0.00	29.976 
11:10	80.5	80.5	82.5	61	65.8	2	4	90	0.00	29.976 
11:15	81.1	81.1	83.8	64	67.7	0	2	112	0.00	29.983 
11:20	81.4	81.4	83.6	60	66.2	1	4	68	0.00	29.983 
11:25	81.8	81.8	84.1	60	66.5	1	4	90	0.00	29.983 
11:30	81.8	81.8	84.3	61	67.0	1	3	90	0.00	29.990 
11:35	82.0	82.0	85.0	63	68.1	1	3	90	0.00	29.990 
11:40	82.2	82.2	85.3	63	68.3	2	6	90	0.00	29.990 
11:45	82.2	82.2	85.7	65	69.2	1	5	90	0.00	29.988 
11:50	82.2	82.2	85.1	62	67.9	2	5	135	0.00	29.988 
11:55	82.4	82.4	85.8	64	69.0	2	5	158	0.00	29.988 
12:00	82.2	82.2	85.5	64	68.8	1	3	292	0.00	29.992 
12:05	82.2	82.2	85.5	64	68.8	1	7	338	0.00	29.992 
12:10	81.6	81.6	85.1	67	69.6	2	5	90	0.00	29.992 
12:15	81.2	81.2	84.6	68	69.6	2	5	90	0.00	29.998 
12:20	81.2	81.2	84.5	67	69.2	2	6	112	0.00	29.998 
12:25	80.7	80.7	83.8	68	69.1	2	5	68	0.00	29.998 
12:30	80.7	80.7	83.7	67	68.7	2	5	112	0.00	30.005 
12:35	80.9	80.9	83.8	66	68.4	2	4	90	0.00	30.005 
12:40	81.6	81.6	84.9	66	69.1	3	5	90	0.00	30.005 
12:45	81.1	81.1	84.1	66	68.6	3	7	112	0.00	30.009 
12:50	81.2	81.2	84.3	66	68.7	2	4	90	0.00	30.009 
12:55	81.2	81.2	84.1	65	68.3	2	6	90	0.00	30.009 
13:00	80.9	80.9	83.7	65	68.0	1	5	112	0.00	30.009 
13:05	80.5	80.5	83.5	68	68.9	2	3	45	0.00	30.009 
13:10	80.1	80.1	83.0	69	69.0	2	6	90	0.00	30.009 
13:15	79.8	79.8	82.4	68	68.3	2	6	112	0.00	30.011 
13:20	79.6	79.6	82.2	69	68.5	2	4	90	0.00	30.011 
13:25	79.0	79.0	81.3	69	67.9	3	6	90	0.00	30.011 
13:30	78.6	78.6	80.8	70	68.0	2	4	90	0.00	30.009 
13:35	78.6	78.6	81.0	72	68.8	2	4	90	0.00	30.009 
13:40	78.3	78.3	80.6	73	68.9	2	8	112	0.00	30.009 
13:45	77.9	77.9	79.9	72	68.1	2	5	90	0.00	30.013 
13:50	77.9	77.9	79.9	72	68.1	3	6	90	0.00	30.013 
13:55	77.7	77.7	79.7	73	68.3	2	6	90	0.00	30.013 
14:00	77.7	77.7	79.7	74	68.7	2	5	112	0.00	30.013 
14:05	77.6	77.6	79.6	75	69.0	2	6	90	0.00	30.013 
14:10	77.6	77.6	79.6	74	68.6	3	6	90	0.00	30.013 
14:15	77.2	77.2	79.0	74	68.3	4	7	112	0.00	30.016 
14:20	77.2	77.2	79.0	75	68.6	3	6	90	0.00	30.016 
14:25	77.0	77.0	78.7	75	68.5	2	5	90	0.00	30.016 
14:30	77.2	77.2	79.0	75	68.6	2	7	90	0.00	30.016 
14:35	77.4	77.4	79.3	76	69.2	2	4	90	0.00	30.016 
14:40	77.4	77.4	79.3	74	68.4	3	5	90	0.00	30.016 
14:45	77.2	77.2	79.0	74	68.3	3	7	90	0.00	30.016 
14:50	77.2	77.2	79.0	75	68.6	2	6	112	0.00	30.016 
14:55	77.0	77.0	78.7	73	67.7	4	7	112	0.00	30.016 
15:00	76.8	76.8	78.4	74	67.9	4	11	90	0.00	30.016 
15:05	76.8	76.8	78.5	73	67.5	3	5	90	0.00	30.016 
15:10	77.0	77.0	78.7	74	68.1	2	4	90	0.00	30.016 
15:15	77.2	77.2	79.0	72	67.5	2	6	90	0.00	30.019 
15:20	77.4	77.4	79.3	73	68.0	3	4	112	0.00	30.019 
15:25	77.9	77.9	79.9	70	67.3	3	9	112	0.00	30.019 
15:30	78.1	78.1	80.2	70	67.5	3	6	90	0.00	30.014 
15:35	78.1	78.1	80.2	70	67.5	2	6	112	0.00	30.014 
15:40	78.1	78.1	80.2	70	67.5	2	4	90	0.00	30.014 
15:45	78.3	78.3	80.4	70	67.7	2	4	90	0.00	30.017 
15:50	78.5	78.5	80.7	69	67.5	2	6	90	0.00	30.017 
15:55	78.5	78.5	80.7	69	67.5	2	5	90	0.00	30.017 
16:00	78.5	78.5	80.7	70	67.9	2	4	90	0.00	30.017 
16:05	78.5	78.5	80.7	70	67.9	2	4	90	0.00	30.017 
16:10	78.6	78.6	80.8	69	67.6	3	5	90	0.00	30.017 
16:15	78.6	78.6	80.8	70	68.0	3	6	90	0.00	30.019 
16:20	78.6	78.6	80.8	69	67.6	1	3	68	0.00	30.019 
16:25	78.6	78.6	80.8	69	67.6	1	4	90	0.00	30.019 
16:30	78.8	78.8	81.1	69	67.7	2	3	90	0.00	30.018 
16:35	79.2	79.2	81.5	68	67.7	1	3	90	0.00	30.018 
16:40	79.6	79.6	82.0	67	67.7	3	6	90	0.00	30.018 
16:45	79.6	79.6	82.0	67	67.7	3	7	90	0.00	30.016 
16:50	79.6	79.6	82.0	67	67.7	2	5	90	0.00	30.016 
16:55	79.9	79.9	82.6	68	68.4	2	6	90	0.00	30.016 
17:00	79.9	79.9	82.3	66	67.5	2	6	90	0.00	30.017 
17:05	80.1	80.1	82.7	67	68.1	2	5	90	0.00	30.017 
17:10	80.5	80.5	83.2	66	68.1	1	3	90	0.00	30.017 
17:15	81.1	81.1	84.0	65	68.2	2	6	90	0.00	30.015 
17:20	81.6	81.6	84.2	62	67.3	2	4	112	0.00	30.015 
17:25	81.8	81.8	84.7	63	67.9	2	5	112	0.00	30.015 
17:30	81.6	81.6	84.7	65	68.7	2	5	90	0.00	30.011 
17:35	81.6	81.6	84.6	64	68.2	3	6	90	0.00	30.011 
17:40	81.2	81.2	83.6	62	66.9	3	7	90	0.00	30.011 
17:45	81.2	81.2	84.1	65	68.3	2	4	112	0.00	30.012 
17:50	81.4	81.4	84.1	63	67.6	1	4	135	0.00	30.012 
17:55	81.2	81.2	84.0	64	67.8	3	5	90	0.00	30.012 
18:00	81.1	81.1	84.0	65	68.2	2	3	90	0.00	30.013 
18:05	80.9	80.9	84.0	67	68.9	2	4	68	0.00	30.013 
18:10	80.9	80.9	83.8	66	68.4	2	4	112	0.00	30.013 
18:15	80.7	80.7	83.4	65	67.8	2	5	90	0.00	30.012 
18:20	80.9	80.9	83.8	66	68.4	1	3	90	0.00	30.012 
18:25	80.9	80.9	83.7	65	68.0	3	6	90	0.00	30.012 
18:30	80.9	80.9	83.8	66	68.4	2	5	112	0.00	30.008 
18:35	80.7	80.7	83.7	67	68.7	2	5	90	0.00	30.008 
18:40	80.5	80.5	83.2	66	68.1	3	7	90	0.00	30.008 
18:45	80.5	80.5	83.6	69	69.4	2	5	112	0.00	30.007 
18:50	80.3	80.3	83.0	67	68.3	2	5	90	0.00	30.007 
18:55	80.1	80.1	82.7	67	68.1	2	5	112	0.00	30.007 
19:00	79.9	79.9	82.7	69	68.8	2	4	112	0.00	30.016 
19:05	79.8	79.8	82.5	69	68.7	2	7	90	0.00	30.016 
19:10	79.9	79.9	82.6	68	68.4	1	4	90	0.00	30.016 
19:15	79.9	79.9	82.6	68	68.4	2	5	90	0.00	30.011 
19:20	79.9	79.9	82.5	67	67.9	2	5	90	0.00	30.011 
19:25	79.9	79.9	82.5	67	67.9	2	9	90	0.00	30.011 
19:30	79.8	79.8	82.3	67	67.8	2	4	90	0.00	30.006 
19:35	79.6	79.6	82.0	67	67.7	2	5	90	0.00	30.006 
19:40	79.6	79.6	82.0	67	67.7	2	5	90	0.00	30.006 
19:45	79.4	79.4	81.6	65	66.6	2	5	90	0.00	30.006 
19:50	79.4	79.4	81.7	67	67.5	2	4	112	0.00	30.006 
19:55	79.2	79.2	81.5	67	67.3	2	5	90	0.00	30.006 
20:00	79.2	79.2	81.5	68	67.7	2	4	90	0.00	30.013 
20:05	79.0	79.0	81.3	68	67.5	2	4	90	0.00	30.013 
20:10	78.8	78.8	81.1	69	67.7	2	4	112	0.00	30.013 
20:15	78.8	78.8	81.0	68	67.3	2	4	90	0.00	30.015 
20:20	78.6	78.6	80.7	68	67.1	2	4	90	0.00	30.015 
20:25	78.6	78.6	80.8	69	67.6	2	4	112	0.00	30.015 
20:30	78.5	78.5	80.7	69	67.5	1	4	112	0.00	30.017 
20:35	78.5	78.5	80.7	69	67.5	1	4	90	0.00	30.017 
20:40	78.3	78.3	80.4	70	67.7	1	3	90	0.00	30.017 
20:45	78.1	78.1	80.2	71	67.9	1	3	90	0.00	30.015 
20:50	77.9	77.9	79.9	72	68.1	1	3	90	0.00	30.015 
20:55	77.7	77.7	79.7	73	68.3	1	3	90	0.00	30.015 
21:00	77.6	77.6	79.6	74	68.6	1	2	90	0.00	30.013 
21:05	77.2	77.2	79.0	76	69.0	1	2	90	0.00	30.013 
21:10	77.0	77.0	78.7	76	68.8	0	1	90	0.00	30.013 
21:15	76.7	76.7	78.2	77	68.9	0	2	90	0.00	30.010 
21:20	76.5	76.5	77.9	78	69.1	0	1	90	0.00	30.010 
21:25	76.3	76.3	77.6	78	68.9	0	1	90	0.00	30.010 
21:30	76.0	76.0	77.2	78	68.6	0	1	90	0.00	30.013 
21:35	75.8	75.8	76.8	79	68.8	0	1	90	0.00	30.013 
21:40	75.6	75.6	76.5	79	68.6	0	1	90	0.00	30.013 
21:45	75.3	75.3	76.0	80	68.7	0	0	---	0.00	30.014 
21:50	75.1	75.1	75.7	80	68.5	0	0	---	0.00	30.014 
21:55	74.7	74.7	74.7	81	68.5	0	0	---	0.00	30.014 
22:00	74.4	74.4	74.4	81	68.2	0	0	---	0.00	30.019 
22:05	74.2	74.2	74.2	82	68.3	0	0	---	0.00	30.019 
22:10	73.9	73.9	73.9	83	68.4	0	0	---	0.00	30.019 
22:15	73.7	73.7	73.7	84	68.6	0	0	---	0.00	30.024 
22:20	73.3	73.3	73.3	84	68.2	0	0	---	0.00	30.024 
22:25	73.2	73.2	73.2	85	68.4	0	0	---	0.00	30.024 
22:30	73.2	73.2	73.2	85	68.4	1	2	90	0.00	30.028 
22:35	73.3	73.3	73.3	84	68.2	1	2	90	0.00	30.028 
22:40	73.5	73.5	73.5	83	68.0	0	1	90	0.00	30.028 
22:45	73.5	73.5	73.5	84	68.4	0	0	---	0.00	30.028 
22:50	73.5	73.5	73.5	84	68.4	0	0	---	0.00	30.028 
22:55	73.3	73.3	73.3	84	68.2	0	1	90	0.00	30.028 
23:00	73.2	73.2	73.2	85	68.4	0	0	---	0.00	30.032 
23:05	73.0	73.0	73.0	85	68.2	0	1	90	0.00	30.032 
23:10	72.7	72.7	72.7	86	68.3	0	0	---	0.00	30.032 
23:15	72.7	72.7	72.7	86	68.3	0	1	90	0.00	30.032 
23:20	72.5	72.5	72.5	86	68.1	0	1	90	0.00	30.032 
23:25	72.3	72.3	72.3	86	67.9	0	0	---	0.00	30.032 
23:30	72.1	72.1	72.1	86	67.7	0	1	90	0.00	30.034 
23:35	72.0	72.0	72.0	86	67.6	0	0	---	0.00	30.034 
23:40	71.8	71.8	71.8	87	67.7	0	0	---	0.00	30.034 
23:45	71.6	71.6	71.6	87	67.5	0	0	---	0.00	30.034 
23:50	71.5	71.5	71.5	88	67.7	0	0	---	0.00	30.034 
23:55	71.3	71.3	71.3	88	67.6	0	0	---	0.00	30.034 

CoCoRaHS
IN-AL-39
A2 Web Hosting
Creative Commons License
GoDaddy
Look for:

loaded 2017-12-12 01:37:03 • last modified 2010-11-18 10:43:29
Privacy PolicyDisclaimer
• wx.awcolley.com is powered by PmWiki v.2002016 •
• all content (unless otherwise noted) © 2017 A W Colley